Time;durP1;ratioP1;P1;durP2;ratioP2;P2;SDS_P1;SDS_P2;PMS_P1;PMS_P2;Temp;Humidity;BMP_temperature;BMP_pressure;BME280_temperature;BME280_humidity;BME280_pressure;Samples;Min_cycle;Max_cycle;Signal;HPM_P1;HPM_P2
2022/12/18 00:01:23;;;;;;;111.70;31.35;;;;;;;-9.41;63.64;100336.72;5175763;28;20432;-71
2022/12/18 00:04:22;;;;;;;112.00;32.00;;;;;;;-9.48;62.76;100320.41;5161668;28;20108;-69
2022/12/18 00:07:13;;;;;;;104.35;31.45;;;;;;;-9.69;63.05;100331.34;5179507;28;20080;-70
2022/12/18 00:10:03;;;;;;;114.78;33.40;;;;;;;-9.59;63.82;100330.56;5174960;28;20053;-71
2022/12/18 00:12:54;;;;;;;116.75;33.47;;;;;;;-9.61;63.45;100322.00;5177241;28;20407;-69
2022/12/18 00:15:44;;;;;;;115.43;32.65;;;;;;;-9.40;62.85;100329.03;5180504;28;20132;-71
2022/12/18 00:18:34;;;;;;;131.15;36.17;;;;;;;-9.28;62.69;100318.00;5171664;28;20057;-71
2022/12/18 00:21:27;;;;;;;124.47;33.25;;;;;;;-9.51;63.94;100328.94;5164927;28;20185;-72
2022/12/18 00:24:17;;;;;;;110.88;32.00;;;;;;;-9.55;63.59;100334.88;5170072;28;20615;-69
2022/12/18 00:27:08;;;;;;;117.55;34.40;;;;;;;-9.48;64.95;100341.78;5182080;28;20057;-69
2022/12/18 00:29:58;;;;;;;114.50;34.70;;;;;;;-9.48;64.42;100338.38;5148486;28;20054;-69
2022/12/18 00:32:49;;;;;;;105.50;30.75;;;;;;;-9.59;63.65;100312.59;5167457;28;20109;-73
2022/12/18 00:35:39;;;;;;;117.10;32.90;;;;;;;-9.50;63.70;100335.81;5169724;28;20050;-73
2022/12/18 00:38:30;;;;;;;131.93;38.53;;;;;;;-9.61;64.09;100332.25;5175408;28;20062;-72
2022/12/18 00:44:29;;;;;;;120.45;33.40;;;;;;;-9.74;64.99;100333.00;5157272;28;20053;-70
2022/12/18 00:47:20;;;;;;;107.93;34.55;;;;;;;-9.60;65.08;100318.59;5180239;28;20056;-72
2022/12/18 00:50:10;;;;;;;137.77;37.95;;;;;;;-9.49;65.94;100334.94;5177201;28;20070;-71
2022/12/18 00:53:00;;;;;;;174.98;46.20;;;;;;;-9.33;64.08;100310.25;5164190;28;20061;-71
2022/12/18 00:55:50;;;;;;;139.77;39.53;;;;;;;-9.58;65.01;100322.03;5167895;28;20107;-72
2022/12/18 00:58:40;;;;;;;133.27;38.05;;;;;;;-9.64;64.48;100321.97;5180325;28;20555;-69
2022/12/18 01:01:32;;;;;;;139.55;40.13;;;;;;;-9.71;64.68;100333.03;5161481;28;20050;-69
2022/12/18 01:04:22;;;;;;;132.18;37.75;;;;;;;-9.63;64.63;100336.53;5160611;28;20058;-69
2022/12/18 01:07:12;;;;;;;124.78;35.90;;;;;;;-9.76;64.86;100317.59;5178681;28;20046;-69
2022/12/18 01:10:04;;;;;;;129.85;35.35;;;;;;;-9.40;64.04;100326.47;5162839;28;20050;-69
2022/12/18 01:12:55;;;;;;;114.32;35.90;;;;;;;-9.53;64.74;100330.63;5144650;28;20128;-69
2022/12/18 01:15:50;;;;;;;131.30;36.13;;;;;;;-9.54;65.14;100335.75;5165197;28;20054;-69
2022/12/18 01:18:40;;;;;;;121.65;34.00;;;;;;;-9.56;66.19;100333.19;5138679;28;20176;-69
2022/12/18 01:21:30;;;;;;;112.88;32.70;;;;;;;-9.55;65.68;100345.16;5179537;28;20534;-69
2022/12/18 01:24:25;;;;;;;122.68;34.05;;;;;;;-9.71;65.34;100336.44;5149286;28;20129;-69
2022/12/18 01:27:15;;;;;;;114.45;34.90;;;;;;;-9.41;66.45;100347.84;5178896;28;20103;-69
2022/12/18 01:30:06;;;;;;;129.32;37.35;;;;;;;-9.27;63.83;100353.97;5173765;28;20477;-69
2022/12/18 01:32:56;;;;;;;118.25;35.63;;;;;;;-9.19;64.00;100345.47;5147940;28;20058;-69
2022/12/18 01:35:46;;;;;;;130.27;37.67;;;;;;;-9.39;64.70;100335.88;5182105;28;20525;-69
2022/12/18 01:38:37;;;;;;;127.65;35.63;;;;;;;-9.62;64.36;100347.66;5161433;28;20439;-69
2022/12/18 01:42:01;;;;;;;126.90;33.97;;;;;;;-9.75;65.02;100351.81;5162980;28;20065;-69
2022/12/18 01:45:11;;;;;;;117.65;35.05;;;;;;;-9.51;64.86;100354.59;5162928;28;20046;-69
2022/12/18 01:48:08;;;;;;;114.72;32.95;;;;;;;-9.62;62.71;100350.22;5159572;28;20097;-69
2022/12/18 01:50:59;;;;;;;107.07;32.13;;;;;;;-9.78;62.74;100346.66;5147634;28;20049;-69
2022/12/18 01:53:50;;;;;;;115.20;33.63;;;;;;;-9.75;63.17;100349.25;5159448;28;20131;-69
2022/12/18 01:56:40;;;;;;;123.32;34.45;;;;;;;-9.59;64.09;100343.41;5178755;28;20060;-69
2022/12/18 01:59:32;;;;;;;113.47;34.53;;;;;;;-9.82;64.06;100345.75;5149835;28;20046;-69
2022/12/18 02:02:23;;;;;;;112.05;34.70;;;;;;;-9.65;63.60;100333.09;5177193;28;20650;-69
2022/12/18 02:05:41;;;;;;;112.30;33.63;;;;;;;-9.62;65.09;100350.22;5169033;28;20053;-69
2022/12/18 02:08:43;;;;;;;101.07;29.20;;;;;;;-9.57;64.88;100343.41;5166661;28;20061;-69
2022/12/18 02:11:43;;;;;;;95.47;29.50;;;;;;;-9.61;63.73;100341.66;5144778;28;20143;-72
2022/12/18 02:14:44;;;;;;;113.55;31.55;;;;;;;-9.87;63.96;100342.25;5149823;28;20610;-69
2022/12/18 02:17:49;;;;;;;102.45;32.85;;;;;;;-9.72;64.42;100351.84;5167228;28;20056;-69
2022/12/18 02:20:53;;;;;;;108.15;32.70;;;;;;;-9.73;65.12;100342.44;5167452;28;20411;-69
2022/12/18 02:24:23;;;;;;;109.60;32.17;;;;;;;-9.75;64.65;100365.50;5168369;28;20534;-69
2022/12/18 02:27:13;;;;;;;102.75;31.08;;;;;;;-9.51;64.08;100357.16;5150022;28;20527;-69
2022/12/18 02:30:05;;;;;;;106.82;32.42;;;;;;;-9.64;64.81;100350.19;5166620;28;20050;-69
2022/12/18 02:32:57;;;;;;;101.18;30.10;;;;;;;-9.79;64.54;100309.84;5160052;28;20489;-69
2022/12/18 02:35:49;;;;;;;119.75;34.63;;;;;;;-9.23;64.91;100354.84;5133926;28;20141;-69
2022/12/18 02:38:40;;;;;;;104.97;32.70;;;;;;;-9.37;65.43;100364.13;5162150;28;20054;-68
2022/12/18 02:41:36;;;;;;;119.45;31.40;;;;;;;-9.61;65.13;100339.09;5165806;28;20546;-68
2022/12/18 02:44:26;;;;;;;109.00;32.47;;;;;;;-9.53;65.35;100361.44;5151340;28;20049;-68
2022/12/18 02:47:21;;;;;;;106.13;31.40;;;;;;;-9.50;65.44;100370.91;5167408;28;20471;-68
2022/12/18 02:50:30;;;;;;;108.20;31.75;;;;;;;-9.52;65.73;100376.00;5150190;28;20442;-68
2022/12/18 02:53:44;;;;;;;116.55;33.67;;;;;;;-9.37;65.84;100384.69;5167254;28;20135;-68
2022/12/18 02:56:57;;;;;;;104.13;30.42;;;;;;;-9.34;65.99;100371.88;5164561;28;20050;-68
2022/12/18 03:00:15;;;;;;;102.45;30.90;;;;;;;-9.03;65.73;100386.72;5161704;28;20116;-68
2022/12/18 03:03:22;;;;;;;98.60;29.52;;;;;;;-9.12;64.87;100384.06;5147436;28;20051;-69
2022/12/18 03:06:29;;;;;;;120.55;32.40;;;;;;;-9.25;64.63;100367.69;5148909;28;20147;-68
2022/12/18 03:09:24;;;;;;;110.18;31.58;;;;;;;-9.29;65.94;100378.78;5161727;28;20501;-68
2022/12/18 03:12:57;;;;;;;104.38;30.67;;;;;;;-9.36;66.07;100359.03;5161567;28;20136;-68
2022/12/18 03:15:51;;;;;;;102.70;31.77;;;;;;;-9.22;65.39;100369.41;5165965;28;20042;-67
2022/12/18 03:18:47;;;;;;;117.28;31.98;;;;;;;-9.47;64.85;100371.78;5147085;28;20054;-69
2022/12/18 03:21:47;;;;;;;114.97;31.83;;;;;;;-9.43;65.05;100392.34;5133427;28;20065;-69
2022/12/18 03:24:39;;;;;;;102.35;30.25;;;;;;;-9.37;64.83;100370.16;5161399;28;20521;-69
2022/12/18 03:27:34;;;;;;;100.47;30.30;;;;;;;-9.16;63.57;100366.91;5158315;28;20050;-68
2022/12/18 03:30:32;;;;;;;102.60;29.45;;;;;;;-9.29;64.36;100383.91;5161922;28;20057;-68
2022/12/18 03:33:29;;;;;;;96.30;29.95;;;;;;;-9.38;64.50;100396.66;5166764;28;20049;-67
2022/12/18 03:36:21;;;;;;;102.18;28.13;;;;;;;-9.53;64.77;100379.44;5134224;28;20054;-69
2022/12/18 03:39:14;;;;;;;107.00;30.33;;;;;;;-9.41;65.90;100388.06;5156615;28;20520;-68
2022/12/18 03:42:28;;;;;;;108.25;30.15;;;;;;;-9.36;65.67;100387.28;5164728;28;20046;-69
2022/12/18 03:45:36;;;;;;;103.03;29.90;;;;;;;-9.19;65.26;100379.72;5142419;28;20449;-69
2022/12/18 03:48:37;;;;;;;102.80;30.50;;;;;;;-9.13;65.05;100371.22;5148358;28;20065;-68
2022/12/18 03:51:52;;;;;;;111.63;30.90;;;;;;;-9.13;65.79;100389.19;5146518;28;20100;-69
2022/12/18 03:54:44;;;;;;;107.47;29.48;;;;;;;-9.06;66.50;100380.69;5164755;28;20053;-69
2022/12/18 03:57:38;;;;;;;99.97;31.05;;;;;;;-8.96;67.27;100361.91;5162582;28;20143;-69
2022/12/18 04:00:30;;;;;;;96.68;27.35;;;;;;;-8.70;67.26;100362.09;5164076;28;20065;-68
2022/12/18 04:03:31;;;;;;;107.32;29.85;;;;;;;-8.59;67.46;100360.44;5149526;28;20058;-68
2022/12/18 04:06:22;;;;;;;112.13;31.27;;;;;;;-8.34;67.99;100373.41;5164802;28;20419;-69
2022/12/18 04:09:14;;;;;;;115.80;30.98;;;;;;;-8.28;66.78;100378.56;5150032;28;20051;-69
2022/12/18 04:12:09;;;;;;;103.25;31.08;;;;;;;-8.28;66.74;100375.97;5164296;28;20076;-69
2022/12/18 04:14:59;;;;;;;101.00;30.48;;;;;;;-8.41;66.08;100369.09;5156598;28;20049;-69
2022/12/18 04:17:50;;;;;;;95.13;29.27;;;;;;;-8.60;65.76;100369.00;5166051;28;20054;-69
2022/12/18 04:20:44;;;;;;;100.78;29.42;;;;;;;-8.57;65.51;100386.16;5149576;28;20054;-68
2022/12/18 04:23:35;;;;;;;106.18;28.70;;;;;;;-8.68;65.30;100368.09;5165736;28;20076;-68
2022/12/18 04:26:25;;;;;;;88.53;28.30;;;;;;;-8.89;65.54;100363.66;5164130;28;20569;-69
2022/12/18 04:29:35;;;;;;;92.63;28.58;;;;;;;-8.95;65.80;100373.06;5154188;28;20196;-69
2022/12/18 04:32:25;;;;;;;93.63;28.38;;;;;;;-9.04;65.20;100387.56;5161732;28;20061;-69
2022/12/18 04:35:16;;;;;;;108.15;29.20;;;;;;;-9.07;65.14;100389.22;5168751;28;20496;-68
2022/12/18 04:38:10;;;;;;;89.13;27.20;;;;;;;-9.15;65.44;100371.19;5168011;28;20544;-70
2022/12/18 04:41:01;;;;;;;83.57;28.17;;;;;;;-8.78;65.99;100371.44;5154631;28;20541;-70
2022/12/18 04:43:52;;;;;;;98.55;28.80;;;;;;;-8.83;65.55;100386.00;5155050;28;20637;-70
2022/12/18 04:46:42;;;;;;;96.22;29.45;;;;;;;-8.58;66.03;100385.28;5168874;28;20050;-70
2022/12/18 04:49:32;;;;;;;92.55;27.90;;;;;;;-8.62;66.04;100380.97;5168082;28;20045;-70
2022/12/18 04:52:22;;;;;;;96.85;29.02;;;;;;;-8.58;65.22;100390.44;5168787;28;20187;-70
2022/12/18 04:55:15;;;;;;;91.13;27.08;;;;;;;-8.66;65.07;100379.25;5162009;28;20046;-72
2022/12/18 04:58:05;;;;;;;96.63;28.50;;;;;;;-8.64;65.10;100353.53;5179207;28;20459;-70
2022/12/18 05:00:55;;;;;;;89.78;26.67;;;;;;;-8.78;65.73;100371.44;5180020;28;20057;-70
2022/12/18 05:03:45;;;;;;;85.72;28.02;;;;;;;-8.68;66.78;100370.66;5178480;28;20125;-70
2022/12/18 05:06:35;;;;;;;86.95;28.50;;;;;;;-8.64;66.89;100379.25;5175027;28;20087;-69
2022/12/18 05:09:26;;;;;;;87.35;26.65;;;;;;;-8.59;65.99;100372.44;5138542;28;20050;-69
2022/12/18 05:12:15;;;;;;;82.65;26.67;;;;;;;-8.38;64.90;100385.41;5181983;28;20072;-70
2022/12/18 05:15:06;;;;;;;91.95;27.88;;;;;;;-8.44;66.10;100374.22;5178253;28;20471;-69
2022/12/18 05:17:58;;;;;;;83.70;25.20;;;;;;;-8.58;65.58;100385.28;5168163;28;20528;-70
2022/12/18 05:20:50;;;;;;;84.00;28.02;;;;;;;-8.53;65.25;100381.03;5182935;28;20057;-70
2022/12/18 05:23:40;;;;;;;87.03;25.75;;;;;;;-8.73;65.58;100380.06;5149234;28;20046;-69
2022/12/18 05:26:31;;;;;;;77.93;25.33;;;;;;;-8.61;64.77;100385.28;5170690;28;20164;-70
2022/12/18 05:29:21;;;;;;;78.68;25.45;;;;;;;-8.74;64.40;100396.31;5181508;28;20061;-69
2022/12/18 05:32:11;;;;;;;77.38;24.40;;;;;;;-8.88;64.32;100367.09;5182420;28;20064;-69
2022/12/18 05:35:02;;;;;;;83.53;25.13;;;;;;;-9.18;66.12;100366.00;5155283;28;20429;-69
2022/12/18 05:37:52;;;;;;;76.85;23.55;;;;;;;-8.63;64.73;100393.84;5148459;28;20112;-70
2022/12/18 05:40:43;;;;;;;76.00;23.92;;;;;;;-8.58;63.64;100399.84;5164894;28;20050;-70
2022/12/18 05:43:38;;;;;;;72.38;25.02;;;;;;;-8.52;63.33;100405.03;5171679;28;20050;-70
2022/12/18 05:46:29;;;;;;;79.90;24.38;;;;;;;-8.32;62.94;100405.13;5183039;28;20127;-70
2022/12/18 05:49:19;;;;;;;69.10;23.63;;;;;;;-8.71;64.02;100390.34;5168224;28;20057;-70
2022/12/18 05:52:09;;;;;;;75.18;23.67;;;;;;;-8.59;65.45;100411.88;5148147;28;20188;-69
2022/12/18 05:54:59;;;;;;;73.85;21.08;;;;;;;-8.68;65.74;100388.66;5180624;28;20052;-70
2022/12/18 05:57:49;;;;;;;66.28;22.38;;;;;;;-8.55;65.13;100403.31;5174311;28;20535;-70
2022/12/18 06:00:44;;;;;;;79.68;23.45;;;;;;;-8.48;65.47;100409.34;5170421;28;20182;-70
2022/12/18 06:03:33;;;;;;;75.20;24.85;;;;;;;-8.55;64.96;100393.03;5152501;28;20050;-70
2022/12/18 06:06:27;;;;;;;66.53;21.55;;;;;;;-8.46;64.42;100401.66;5141591;28;20553;-69
2022/12/18 06:09:17;;;;;;;76.43;22.10;;;;;;;-8.46;65.02;100401.66;5177590;28;20050;-69
2022/12/18 06:12:07;;;;;;;72.80;22.88;;;;;;;-8.46;65.02;100396.50;5179908;28;20053;-70
2022/12/18 06:14:57;;;;;;;72.38;23.00;;;;;;;-8.58;65.29;100363.84;5179247;28;20042;-69
2022/12/18 06:17:47;;;;;;;68.75;21.67;;;;;;;-8.37;65.69;100401.69;5158259;28;20112;-72
2022/12/18 06:20:39;;;;;;;73.60;23.67;;;;;;;-8.32;65.33;100398.25;5164221;28;20057;-69
2022/12/18 06:23:30;;;;;;;66.43;20.55;;;;;;;-8.55;65.10;100390.44;5175648;28;20054;-70
2022/12/18 06:26:20;;;;;;;71.47;21.70;;;;;;;-8.47;65.55;100397.38;5147578;28;20053;-69
2022/12/18 06:29:17;;;;;;;86.85;23.38;;;;;;;-8.43;65.02;100409.41;5175217;28;20101;-70
2022/12/18 06:32:07;;;;;;;73.45;22.58;;;;;;;-8.43;64.88;100412.81;5146372;28;20548;-70
2022/12/18 06:34:57;;;;;;;80.00;22.63;;;;;;;-8.41;63.36;100395.69;5152833;28;20136;-71
2022/12/18 06:37:47;;;;;;;71.70;22.10;;;;;;;-8.69;63.82;100399.78;5181787;28;20097;-70
2022/12/18 06:40:38;;;;;;;67.28;21.85;;;;;;;-8.80;64.45;100420.28;5174410;28;20566;-69
2022/12/18 06:43:28;;;;;;;71.22;20.67;;;;;;;-8.73;64.34;100421.19;5165910;28;20061;-69
2022/12/18 06:46:19;;;;;;;84.25;21.63;;;;;;;-8.80;63.46;100420.28;5168512;28;20054;-70
2022/12/18 06:49:09;;;;;;;79.07;22.00;;;;;;;-8.76;63.87;100424.59;5166688;28;20188;-70
2022/12/18 06:51:59;;;;;;;81.25;22.05;;;;;;;-8.93;63.25;100404.78;5156011;28;20065;-70
2022/12/18 06:54:49;;;;;;;63.50;21.73;;;;;;;-8.92;62.84;100420.19;5148693;28;20425;-70
2022/12/18 06:57:39;;;;;;;77.60;21.83;;;;;;;-8.88;63.77;100416.78;5173725;28;20053;-71
2022/12/18 07:00:30;;;;;;;85.97;24.73;;;;;;;-8.97;64.15;100427.03;5176032;28;20111;-69
2022/12/18 07:03:20;;;;;;;76.53;24.25;;;;;;;-8.82;64.78;100431.41;5166706;28;20061;-69
2022/12/18 07:06:16;;;;;;;83.00;24.70;;;;;;;-8.93;64.71;100430.47;5167034;28;20056;-70
2022/12/18 07:09:06;;;;;;;74.75;22.88;;;;;;;-8.90;64.19;100439.06;5164297;28;20061;-70
2022/12/18 07:11:56;;;;;;;84.85;24.42;;;;;;;-8.82;63.65;100433.97;5180358;28;20111;-70
2022/12/18 07:14:47;;;;;;;75.43;24.05;;;;;;;-8.72;63.58;100447.75;5180309;28;20168;-70
2022/12/18 07:17:37;;;;;;;85.50;23.45;;;;;;;-9.29;63.85;100421.59;5174748;28;20170;-71
2022/12/18 07:20:27;;;;;;;76.13;23.10;;;;;;;-9.13;63.43;100448.28;5175455;28;20056;-70
2022/12/18 07:23:18;;;;;;;80.85;24.15;;;;;;;-9.10;64.16;100456.88;5181449;28;20424;-69
2022/12/18 07:26:11;;;;;;;83.30;24.55;;;;;;;-8.90;62.82;100451.91;5171557;28;20568;-69
2022/12/18 07:29:02;;;;;;;74.28;24.08;;;;;;;-8.96;63.12;100449.28;5166103;28;20470;-69
2022/12/18 07:31:52;;;;;;;67.20;20.70;;;;;;;-8.92;63.58;100457.88;5184407;28;20053;-69
2022/12/18 07:34:42;;;;;;;82.60;23.33;;;;;;;-8.76;62.66;100463.16;5169996;28;20054;-69
2022/12/18 07:37:33;;;;;;;71.30;22.83;;;;;;;-9.02;63.55;100467.22;5169062;28;20057;-69
2022/12/18 07:40:23;;;;;;;82.00;23.20;;;;;;;-9.00;64.27;100453.53;5170956;28;20046;-72
2022/12/18 07:43:13;;;;;;;225.40;63.92;;;;;;;-8.61;63.55;100464.13;5181401;28;20090;-68
2022/12/18 07:46:04;;;;;;;274.15;73.22;;;;;;;-8.81;64.83;100469.09;5181976;28;20049;-71
2022/12/18 07:48:54;;;;;;;102.45;28.35;;;;;;;-8.84;63.98;100469.09;5179450;28;20157;-67
2022/12/18 07:51:48;;;;;;;156.35;41.40;;;;;;;-8.82;63.27;100469.97;5167068;28;20060;-68
2022/12/18 07:54:40;;;;;;;91.55;26.70;;;;;;;-8.69;63.41;100469.22;5166792;28;20065;-67
2022/12/18 07:57:30;;;;;;;102.20;31.02;;;;;;;-8.73;64.66;100462.34;5169614;28;20203;-67
2022/12/18 08:00:40;;;;;;;87.32;26.50;;;;;;;-8.81;65.77;100462.25;5185702;28;20061;-68
2022/12/18 08:03:30;;;;;;;72.70;24.15;;;;;;;-8.49;64.71;100469.38;5182384;28;20052;-68
2022/12/18 08:06:21;;;;;;;84.00;23.38;;;;;;;-8.23;64.53;100463.50;5183430;28;20053;-67
2022/12/18 08:09:14;;;;;;;81.00;25.27;;;;;;;-8.21;64.39;100461.78;5181558;28;20099;-68
2022/12/18 08:12:04;;;;;;;103.00;27.67;;;;;;;-8.25;64.76;100470.34;5183213;28;20076;-67
2022/12/18 08:14:55;;;;;;;85.38;25.85;;;;;;;-8.12;64.14;100480.72;5167592;28;20193;-68
2022/12/18 08:17:44;;;;;;;86.25;26.63;;;;;;;-8.16;64.30;100478.13;5178912;28;20085;-70
2022/12/18 08:20:34;;;;;;;87.47;24.17;;;;;;;-8.11;64.63;100463.56;5167078;28;20128;-68
2022/12/18 08:23:25;;;;;;;77.70;23.80;;;;;;;-7.82;63.43;100485.16;5168713;28;20057;-68
2022/12/18 08:26:18;;;;;;;86.25;25.85;;;;;;;-7.74;63.30;100467.19;5177793;28;20072;-68
2022/12/18 08:29:08;;;;;;;95.30;25.70;;;;;;;-7.68;63.50;100480.09;5156325;28;20049;-69
2022/12/18 08:31:58;;;;;;;88.75;25.90;;;;;;;-7.51;63.67;100476.72;5176952;28;20508;-67
2022/12/18 08:34:49;;;;;;;77.18;24.27;;;;;;;-7.56;63.69;100480.13;5157472;28;20050;-69
2022/12/18 08:37:39;;;;;;;78.05;25.15;;;;;;;-7.49;64.62;100460.38;5162053;28;20050;-67
2022/12/18 08:40:30;;;;;;;74.90;24.77;;;;;;;-7.40;64.22;100464.72;5175541;28;20058;-68
2022/12/18 08:46:40;;;;;;;76.07;23.77;;;;;;;-7.26;64.79;100472.47;5169030;28;20057;-67
2022/12/18 08:49:31;;;;;;;93.45;26.90;;;;;;;-7.14;64.61;100459.63;5188377;28;20064;-68
2022/12/18 08:52:22;;;;;;;94.18;26.58;;;;;;;-6.91;64.25;100463.09;5175507;28;20108;-69
2022/12/18 08:55:12;;;;;;;92.35;27.27;;;;;;;-6.95;64.54;100474.25;5168912;28;20046;-68
2022/12/18 08:58:02;;;;;;;96.55;28.60;;;;;;;-6.54;63.65;100469.97;5165553;28;20097;-68
2022/12/18 09:00:52;;;;;;;98.13;29.85;;;;;;;-6.88;64.44;100462.22;5182686;28;20100;-68
2022/12/18 09:03:42;;;;;;;115.45;33.47;;;;;;;-7.01;65.24;100447.63;5160286;28;20500;-68
2022/12/18 09:06:33;;;;;;;114.13;38.40;;;;;;;-6.78;65.60;100445.91;5181499;28;20041;-68
2022/12/18 09:09:24;;;;;;;93.60;30.70;;;;;;;-6.83;65.47;100446.75;5175514;28;20097;-71
2022/12/18 09:12:14;;;;;;;92.25;30.20;;;;;;;-6.56;65.64;100456.19;5180397;28;20707;-68
2022/12/18 09:15:05;;;;;;;93.95;28.15;;;;;;;-6.33;65.17;100449.28;5167718;28;20722;-69
2022/12/18 09:17:55;;;;;;;90.18;28.70;;;;;;;-6.20;64.67;100445.81;5166688;28;20052;-68
2022/12/18 09:20:45;;;;;;;81.65;27.15;;;;;;;-6.12;63.94;100437.19;5182220;28;20053;-68
2022/12/18 09:23:35;;;;;;;96.38;28.15;;;;;;;-6.08;63.75;100449.25;5168436;28;20060;-69
2022/12/18 09:26:26;;;;;;;94.45;29.13;;;;;;;-5.99;64.27;100444.06;5164819;28;20184;-68
2022/12/18 09:29:17;;;;;;;93.25;28.30;;;;;;;-6.18;65.18;100427.75;5182333;28;20049;-69
2022/12/18 09:32:07;;;;;;;80.88;28.08;;;;;;;-6.29;65.91;100430.38;5167307;28;20045;-68
2022/12/18 09:34:58;;;;;;;104.57;33.85;;;;;;;-5.94;65.67;100430.25;5155553;28;20050;-67
2022/12/18 09:37:48;;;;;;;88.55;29.52;;;;;;;-5.80;64.49;100412.06;5179332;28;20073;-72
2022/12/18 09:40:51;;;;;;;97.15;30.33;;;;;;;-5.70;64.50;100405.13;5179661;28;20056;-71
2022/12/18 09:43:45;;;;;;;89.47;27.98;;;;;;;-5.39;63.60;100441.19;5182155;28;20523;-72
2022/12/18 09:46:45;;;;;;;99.18;30.52;;;;;;;-5.45;63.92;100427.41;5165157;28;20064;-69
2022/12/18 09:49:42;;;;;;;89.90;28.58;;;;;;;-5.26;64.00;100432.47;5180601;28;20084;-69
2022/12/18 09:52:37;;;;;;;91.07;28.65;;;;;;;-5.06;63.66;100425.44;5171106;28;20048;-68
2022/12/18 09:55:36;;;;;;;89.18;28.33;;;;;;;-5.14;64.66;100416.00;5174284;28;20105;-70
2022/12/18 09:58:45;;;;;;;91.18;29.58;;;;;;;-4.84;62.82;100418.34;5164393;28;20056;-69
2022/12/18 10:01:34;;;;;;;95.38;28.55;;;;;;;-4.83;63.71;100417.50;5174190;28;20045;-68
2022/12/18 10:04:33;;;;;;;98.75;29.40;;;;;;;-4.92;63.71;100433.09;5169156;28;20412;-69
2022/12/18 10:07:39;;;;;;;102.28;30.65;;;;;;;-4.63;63.25;100424.25;5162969;28;20052;-67
2022/12/18 10:10:52;;;;;;;97.90;28.75;;;;;;;-4.41;63.27;100433.50;5302849;27;20395;-72
2022/12/18 10:13:56;;;;;;;88.18;29.95;;;;;;;-4.46;63.62;100416.31;5318806;27;20077;-69
2022/12/18 10:16:56;;;;;;;89.43;28.45;;;;;;;-4.37;63.46;100431.72;5302994;28;20059;-68
2022/12/18 10:19:54;;;;;;;86.80;30.05;;;;;;;-4.43;63.66;100427.50;5303331;28;20055;-68
2022/12/18 10:23:13;;;;;;;89.50;28.98;;;;;;;-3.94;62.21;100437.34;5301717;28;20104;-68
2022/12/18 10:26:06;;;;;;;103.25;30.20;;;;;;;-4.10;63.65;100435.78;5302023;28;20457;-69
2022/12/18 10:28:57;;;;;;;101.60;31.08;;;;;;;-4.01;63.33;100440.84;5304067;28;20050;-72
2022/12/18 10:31:54;;;;;;;97.28;30.15;;;;;;;-3.70;63.27;100435.34;5304154;28;20180;-72
2022/12/18 10:34:46;;;;;;;103.03;30.23;;;;;;;-3.84;62.70;100406.97;5288653;28;20544;-70
2022/12/18 10:38:20;;;;;;;95.13;31.42;;;;;;;-3.71;62.80;100397.31;5257731;23;20140;-70
2022/12/18 10:41:21;;;;;;;101.03;31.42;;;;;;;-3.46;63.45;100434.16;5209113;28;20065;-70
2022/12/18 10:44:22;;;;;;;96.13;30.23;;;;;;;-3.37;63.49;100436.63;5215401;28;20049;-70
2022/12/18 10:47:18;;;;;;;89.00;30.58;;;;;;;-3.33;63.50;100433.09;5206518;28;20564;-70
2022/12/18 10:50:36;;;;;;;107.10;30.63;;;;;;;-3.22;63.86;100431.19;5200976;28;20402;-70
2022/12/18 10:53:52;;;;;;;99.40;31.33;;;;;;;-3.15;63.81;100429.38;5196927;28;20046;-69
2022/12/18 10:56:43;;;;;;;99.97;32.22;;;;;;;-2.73;62.81;100430.44;5196324;28;20411;-70
2022/12/18 10:59:51;;;;;;;101.22;32.88;;;;;;;-2.84;63.81;100430.63;5194891;28;20081;-70
2022/12/18 11:02:40;;;;;;;108.97;32.42;;;;;;;-2.69;64.07;100429.50;5196827;28;20049;-70
2022/12/18 11:05:33;;;;;;;88.68;31.50;;;;;;;-2.52;62.72;100431.81;5198275;28;20064;-70
2022/12/18 11:08:23;;;;;;;96.28;32.65;;;;;;;-2.49;62.81;100431.75;5197685;28;20123;-70
2022/12/18 11:11:22;;;;;;;112.20;35.95;;;;;;;-2.31;63.25;100425.41;5196405;28;20060;-70
2022/12/18 11:14:21;;;;;;;94.85;30.60;;;;;;;-2.10;62.18;100425.88;5197518;28;20212;-70
2022/12/18 11:17:38;;;;;;;100.55;33.65;;;;;;;-2.00;63.19;100406.63;5183164;28;20050;-70
2022/12/18 11:20:35;;;;;;;98.30;31.80;;;;;;;-1.96;62.98;100405.66;5192296;28;20076;-70
2022/12/18 11:23:27;;;;;;;98.18;31.95;;;;;;;-1.79;62.03;100397.53;5183739;28;20089;-70
2022/12/18 11:26:17;;;;;;;104.43;32.13;;;;;;;-2.14;62.67;100396.50;5183091;28;20082;-70
2022/12/18 11:29:15;;;;;;;100.40;32.63;;;;;;;-1.80;61.38;100386.28;5182513;28;20511;-70
2022/12/18 11:32:14;;;;;;;92.07;32.30;;;;;;;-1.76;62.36;100380.13;5183577;28;20057;-70
2022/12/18 11:35:21;;;;;;;99.57;32.00;;;;;;;-1.74;63.08;100386.16;5183363;28;20171;-70
2022/12/18 11:38:22;;;;;;;100.43;31.38;;;;;;;-1.63;63.21;100393.72;5183261;28;20064;-70
2022/12/18 11:42:08;;;;;;;98.18;32.05;;;;;;;-1.54;62.84;100384.88;5181948;28;20523;-70
2022/12/18 11:44:42;;;;;;;92.57;29.95;;;;;;;-1.45;63.07;100382.06;5183934;28;20749;-70
2022/12/18 11:47:43;;;;;;;92.72;32.92;;;;;;;-1.14;61.71;100379.59;5171068;28;20065;-70
2022/12/18 11:50:46;;;;;;;93.72;30.85;;;;;;;-1.19;62.23;100369.31;5181980;28;20052;-71
2022/12/18 11:53:38;;;;;;;98.90;32.45;;;;;;;-1.14;62.88;100371.81;5182666;28;20523;-71
2022/12/18 11:56:47;;;;;;;89.03;31.38;;;;;;;-1.15;62.17;100369.25;5181375;28;20056;-71
2022/12/18 11:59:40;;;;;;;98.82;29.02;;;;;;;-1.09;62.53;100372.56;5182537;28;20054;-71
2022/12/18 12:02:42;;;;;;;98.78;31.45;;;;;;;-1.10;62.34;100355.22;5184010;28;20053;-70
2022/12/18 12:06:00;;;;;;;100.07;31.50;;;;;;;-1.04;62.16;100365.47;5184294;28;20443;-70
2022/12/18 12:09:16;;;;;;;95.55;29.00;;;;;;;-1.02;62.81;100348.09;5175349;28;20225;-72
2022/12/18 12:12:13;;;;;;;88.50;29.60;;;;;;;-1.05;62.21;100339.50;5180986;28;20054;-73
2022/12/18 12:15:26;;;;;;;96.05;32.15;;;;;;;-0.99;62.10;100340.19;5169868;28;20057;-69
2022/12/18 12:18:56;;;;;;;89.75;31.00;;;;;;;-0.93;61.98;100331.34;5183319;28;20072;-71
2022/12/18 12:21:54;;;;;;;84.18;27.48;;;;;;;-1.03;63.14;100327.28;5180938;28;20054;-69
2022/12/18 12:25:13;;;;;;;91.18;30.95;;;;;;;-0.83;62.37;100326.78;5177591;28;20050;-69
2022/12/18 12:28:32;;;;;;;92.70;32.05;;;;;;;-0.72;62.49;100333.44;5181819;28;20054;-71
2022/12/18 12:31:47;;;;;;;90.65;28.75;;;;;;;-0.68;62.53;100339.41;5182963;28;20108;-71
2022/12/18 12:34:57;;;;;;;94.90;30.65;;;;;;;-0.66;62.20;100332.44;5183573;28;20085;-71
2022/12/18 12:38:19;;;;;;;89.28;28.70;;;;;;;-0.54;62.24;100333.84;5166954;28;20053;-71
2022/12/18 12:44:54;;;;;;;83.40;29.27;;;;;;;-0.26;62.22;100336.56;5140283;28;20341;-70
2022/12/18 12:47:49;;;;;;;93.47;31.30;;;;;;;-0.31;62.04;100333.22;5139609;28;20061;-70
2022/12/18 12:50:41;;;;;;;85.80;28.30;;;;;;;-0.34;62.36;100331.53;5181174;28;20050;-71
2022/12/18 12:53:37;;;;;;;89.03;29.20;;;;;;;-0.33;61.91;100346.28;5175187;28;20057;-70
2022/12/18 12:56:56;;;;;;;88.47;29.40;;;;;;;-0.27;62.54;100353.91;5182422;28;20184;-70
2022/12/18 13:00:24;;;;;;;82.72;28.23;;;;;;;-0.27;63.03;100348.69;5180826;28;20458;-73
2022/12/18 13:03:33;;;;;;;89.55;26.02;;;;;;;-0.24;61.88;100339.94;5152707;28;20068;-70
2022/12/18 13:06:46;;;;;;;87.40;29.58;;;;;;;-0.18;61.93;100333.72;5182511;28;20060;-71
2022/12/18 13:10:15;;;;;;;86.40;28.77;;;;;;;-0.10;61.64;100348.25;5171343;28;20167;-70
2022/12/18 13:13:11;;;;;;;90.03;27.55;;;;;;;-0.13;62.08;100353.56;5172613;28;20543;-71
2022/12/18 13:16:07;;;;;;;79.07;27.83;;;;;;;-0.17;62.03;100335.44;5182148;28;20419;-71
2022/12/18 13:18:58;;;;;;;84.95;27.20;;;;;;;-0.12;62.26;100341.38;5166728;28;20057;-71
2022/12/18 13:21:54;;;;;;;88.35;28.33;;;;;;;-0.08;62.39;100340.38;5182030;28;20143;-70
2022/12/18 13:24:44;;;;;;;83.35;28.50;;;;;;;-0.02;62.31;100333.25;5183089;28;20530;-70
2022/12/18 13:27:45;;;;;;;81.32;27.60;;;;;;;0.05;62.09;100327.84;5180850;28;20140;-70